createdAt,value
2023-02-12T00:00:25.053Z,30.13
2023-02-12T00:02:53.134Z,32.03
2023-02-12T00:05:21.202Z,30.27
2023-02-12T00:07:49.279Z,33.50
2023-02-12T00:10:17.503Z,31.73
2023-02-12T00:12:45.603Z,28.80
2023-02-12T00:15:15.055Z,33.33
2023-02-12T00:17:43.112Z,31.17
2023-02-12T00:20:12.160Z,28.90
2023-02-12T00:22:40.235Z,28.90
2023-02-12T00:25:09.605Z,30.60
2023-02-12T00:27:37.692Z,36.47
2023-02-12T00:30:06.484Z,28.10
2023-02-12T00:32:37.362Z,31.37
2023-02-12T00:35:05.656Z,25.97
2023-02-12T00:37:35.552Z,32.37
2023-02-12T00:40:03.725Z,30.60
2023-02-12T00:42:31.772Z,30.57
2023-02-12T00:44:59.834Z,28.97
2023-02-12T00:47:27.923Z,28.87
2023-02-12T00:49:57.414Z,30.90
2023-02-12T00:52:25.501Z,33.10
2023-02-12T00:54:53.614Z,26.60
2023-02-12T00:57:23.579Z,29.87
2023-02-12T00:59:51.689Z,28.97
2023-02-12T01:02:19.784Z,32.37
2023-02-12T01:04:47.915Z,28.93
2023-02-12T01:07:18.977Z,30.67
2023-02-12T01:09:47.208Z,24.97
2023-02-12T01:12:15.325Z,31.00
2023-02-12T01:14:43.374Z,30.77
2023-02-12T01:17:11.463Z,29.03
2023-02-12T01:19:39.540Z,29.40
2023-02-12T01:22:07.640Z,30.67
2023-02-12T01:24:37.120Z,26.33
2023-02-12T01:27:05.306Z,32.33
2023-02-12T01:29:35.604Z,27.17
2023-02-12T01:32:03.877Z,30.23
2023-02-12T01:34:32.014Z,29.10
2023-02-12T01:37:00.082Z,25.43
2023-02-12T01:39:28.153Z,30.53
2023-02-12T01:41:57.613Z,31.93
2023-02-12T01:44:26.250Z,29.47
2023-02-12T01:46:57.050Z,30.67
2023-02-12T01:49:27.522Z,27.57
2023-02-12T01:51:57.090Z,28.60
2023-02-12T01:54:26.778Z,28.00
2023-02-12T01:56:54.929Z,28.27
2023-02-12T01:59:24.379Z,32.30
2023-02-12T02:01:52.571Z,26.87
2023-02-12T02:04:22.583Z,27.93
2023-02-12T02:06:51.804Z,26.70
2023-02-12T02:09:20.312Z,29.30
2023-02-12T02:12:10.382Z,28.10
2023-02-12T02:14:39.816Z,29.20
2023-02-12T02:17:17.560Z,29.77
2023-02-12T02:20:43.956Z,28.27
2023-02-12T02:23:31.590Z,33.37
2023-02-12T02:26:11.245Z,26.90
2023-02-12T02:29:00.146Z,25.93
2023-02-12T02:31:32.015Z,24.80
2023-02-12T02:34:02.750Z,27.27
2023-02-12T02:36:34.611Z,29.30
2023-02-12T02:39:04.515Z,29.70
2023-02-12T02:41:34.945Z,28.53
2023-02-12T02:44:03.588Z,28.17
2023-02-12T02:46:35.517Z,29.70
2023-02-12T02:49:04.520Z,31.03
2023-02-12T02:51:34.551Z,25.37
2023-02-12T02:54:05.901Z,31.83
2023-02-12T02:56:34.994Z,26.57
2023-02-12T02:59:04.908Z,25.20
2023-02-12T03:01:35.927Z,27.80
2023-02-12T03:04:04.777Z,27.07
2023-02-12T03:06:36.249Z,29.03
2023-02-12T03:09:08.137Z,25.47
2023-02-12T03:11:36.228Z,30.90
2023-02-12T03:14:07.031Z,25.50
2023-02-12T03:16:38.573Z,28.10
2023-02-12T03:19:07.949Z,27.73
2023-02-12T03:21:38.487Z,29.40
2023-02-12T03:24:09.391Z,27.23
2023-02-12T03:26:41.893Z,30.03
2023-02-12T03:29:10.032Z,25.40
2023-02-12T03:31:48.016Z,27.73
2023-02-12T03:34:19.531Z,26.40
2023-02-12T03:36:49.466Z,24.73
2023-02-12T03:39:20.957Z,25.20
2023-02-12T03:41:50.777Z,26.87
2023-02-12T03:44:24.330Z,27.37
2023-02-12T03:46:59.084Z,28.03
2023-02-12T03:49:29.717Z,27.10
2023-02-12T03:51:58.385Z,25.63
2023-02-12T03:54:26.475Z,24.67
2023-02-12T03:56:56.454Z,25.83
2023-02-12T03:59:24.677Z,27.20
2023-02-12T04:01:55.419Z,23.90
2023-02-12T04:04:23.604Z,27.90
2023-02-12T04:06:51.747Z,25.30
2023-02-12T04:09:19.860Z,25.43
2023-02-12T04:11:53.616Z,26.40
2023-02-12T04:14:26.412Z,26.00
2023-02-12T04:17:01.809Z,27.80
2023-02-12T04:19:34.443Z,25.00
2023-02-12T04:22:12.976Z,24.80
2023-02-12T04:24:45.634Z,25.83
2023-02-12T04:27:16.286Z,22.10
2023-02-12T04:29:48.254Z,22.47
2023-02-12T04:32:19.703Z,25.30
2023-02-12T04:34:51.460Z,25.50
2023-02-12T04:37:20.416Z,28.07
2023-02-12T04:39:48.475Z,24.87
2023-02-12T04:42:16.588Z,24.13
2023-02-12T04:44:44.935Z,25.63
2023-02-12T04:47:13.312Z,26.70
2023-02-12T04:49:42.842Z,23.60
2023-02-12T04:52:11.156Z,26.30
2023-02-12T04:54:39.537Z,25.60
2023-02-12T04:57:07.601Z,29.10
2023-02-12T04:59:35.702Z,28.77
2023-02-12T05:02:03.851Z,24.10
2023-02-12T05:04:31.998Z,25.00
2023-02-12T05:07:01.452Z,27.37
2023-02-12T05:09:29.537Z,23.03
2023-02-12T05:11:57.676Z,25.27
2023-02-12T05:14:25.824Z,26.80
2023-02-12T05:16:53.913Z,26.00
2023-02-12T05:19:22.000Z,27.53
2023-02-12T05:21:51.269Z,24.70
2023-02-12T05:24:20.729Z,27.70
2023-02-12T05:26:49.890Z,25.83
2023-02-12T05:29:18.001Z,27.00
2023-02-12T05:31:46.176Z,26.10
2023-02-12T05:34:17.792Z,26.73
2023-02-12T05:36:45.851Z,23.10
2023-02-12T05:39:17.767Z,25.37
2023-02-12T05:41:47.204Z,26.90
2023-02-12T05:44:15.603Z,27.53
2023-02-12T05:46:43.767Z,24.77
2023-02-12T05:49:12.032Z,24.70
2023-02-12T05:51:40.096Z,25.93
2023-02-12T05:54:08.256Z,25.13
2023-02-12T05:56:37.077Z,23.40
2023-02-12T05:59:07.762Z,23.83
2023-02-12T06:01:37.058Z,25.03
2023-02-12T06:04:06.174Z,23.80
2023-02-12T06:06:34.370Z,26.33
2023-02-12T06:09:02.542Z,24.33
2023-02-12T06:11:30.598Z,27.17
2023-02-12T06:13:58.678Z,27.50
2023-02-12T06:16:28.762Z,25.50
2023-02-12T06:18:57.368Z,23.47
2023-02-12T06:21:26.444Z,25.33
2023-02-12T06:23:54.650Z,26.23
2023-02-12T06:26:22.942Z,26.33
2023-02-12T06:28:51.075Z,23.77
2023-02-12T06:31:20.400Z,25.53
2023-02-12T06:34:03.749Z,26.70
2023-02-12T06:36:31.799Z,30.70
2023-02-12T06:39:01.418Z,22.90
2023-02-12T06:41:29.516Z,22.70
2023-02-12T06:43:57.589Z,23.90
2023-02-12T06:46:25.791Z,22.83
2023-02-12T06:48:55.483Z,26.93
2023-02-12T06:51:24.920Z,27.90
2023-02-12T06:53:53.297Z,20.80
2023-02-12T06:56:21.835Z,22.17
2023-02-12T06:58:53.694Z,22.90
2023-02-12T07:01:22.649Z,22.50
2023-02-12T07:03:51.739Z,19.13
2023-02-12T07:06:19.911Z,20.13
2023-02-12T07:08:49.388Z,19.20
2023-02-12T07:11:17.560Z,17.63
2023-02-12T07:13:46.202Z,19.37
2023-02-12T07:16:16.180Z,20.30
2023-02-12T07:18:44.493Z,15.87
2023-02-12T07:21:13.097Z,18.40
2023-02-12T07:23:41.231Z,16.80
2023-02-12T07:26:12.163Z,15.20
2023-02-12T07:28:40.417Z,17.40
2023-02-12T07:31:12.656Z,15.27
2023-02-12T07:33:41.066Z,14.30
2023-02-12T07:36:10.592Z,15.23
2023-02-12T07:38:39.885Z,17.13
2023-02-12T07:41:12.223Z,12.80
2023-02-12T07:43:40.935Z,13.00
2023-02-12T07:46:12.851Z,14.53
2023-02-12T07:48:41.011Z,13.40
2023-02-12T07:51:10.240Z,13.37
2023-02-12T07:53:38.464Z,14.20
2023-02-12T07:56:08.288Z,15.40
2023-02-12T07:58:37.783Z,12.60
2023-02-12T08:01:17.028Z,15.80
2023-02-12T08:03:45.514Z,13.13
2023-02-12T08:06:14.861Z,14.30
2023-02-12T08:08:42.945Z,12.27
2023-02-12T08:11:11.427Z,12.70
2023-02-12T08:13:40.894Z,12.30
2023-02-12T08:16:10.195Z,13.80
2023-02-12T08:18:38.281Z,11.93
2023-02-12T08:21:06.922Z,11.97
2023-02-12T08:23:34.998Z,13.00
2023-02-12T08:26:07.965Z,11.97
2023-02-12T08:28:36.188Z,10.83
2023-02-12T08:31:06.320Z,12.20
2023-02-12T08:33:34.407Z,12.57
2023-02-12T08:36:03.929Z,10.17
2023-02-12T08:38:32.727Z,12.43
2023-02-12T08:41:06.948Z,11.47
2023-02-12T08:43:35.231Z,10.27
2023-02-12T08:46:05.931Z,10.43
2023-02-12T08:48:34.414Z,13.00
2023-02-12T08:51:10.075Z,11.30
2023-02-12T08:53:38.252Z,13.67
2023-02-12T08:56:06.845Z,11.60
2023-02-12T08:58:34.951Z,11.70
2023-02-12T09:01:03.074Z,9.67
2023-02-12T09:03:32.513Z,10.80
2023-02-12T09:06:00.554Z,11.90
2023-02-12T09:08:28.669Z,12.37
2023-02-12T09:10:56.743Z,10.80
2023-02-12T09:13:24.841Z,12.63
2023-02-12T09:15:52.961Z,11.53
2023-02-12T09:18:21.040Z,12.83
2023-02-12T09:20:50.479Z,14.40
2023-02-12T09:23:23.997Z,15.43
2023-02-12T09:26:00.045Z,15.97
2023-02-12T09:28:36.284Z,15.20
2023-02-12T09:31:06.926Z,16.30
2023-02-12T09:33:35.204Z,16.10
2023-02-12T09:36:05.247Z,17.97
2023-02-12T09:38:33.421Z,19.40
2023-02-12T09:41:11.024Z,17.73
2023-02-12T09:43:41.703Z,19.60
2023-02-12T09:46:20.330Z,22.40
2023-02-12T09:48:54.977Z,22.67
2023-02-12T09:51:24.481Z,20.87
2023-02-12T09:53:52.530Z,21.50
2023-02-12T09:56:23.974Z,26.17
2023-02-12T09:58:53.466Z,23.03
2023-02-12T10:01:53.601Z,21.50
2023-02-12T10:04:21.737Z,21.10
2023-02-12T10:06:54.680Z,28.40
2023-02-12T10:09:31.309Z,21.70
2023-02-12T10:12:08.200Z,25.67
2023-02-12T10:14:54.432Z,21.60
2023-02-12T10:17:27.835Z,23.03
2023-02-12T10:20:22.853Z,21.90
2023-02-12T10:22:57.660Z,23.20
2023-02-12T10:25:27.516Z,25.27
2023-02-12T10:27:56.623Z,24.20
2023-02-12T10:30:27.026Z,52.47
2023-02-12T10:32:57.559Z,45.80
2023-02-12T10:35:25.744Z,33.10
2023-02-12T10:37:58.140Z,27.67
2023-02-12T10:40:28.486Z,32.40
2023-02-12T10:42:57.415Z,26.13
2023-02-12T10:45:26.755Z,25.43
2023-02-12T10:47:56.060Z,25.43
2023-02-12T10:50:34.798Z,28.57
2023-02-12T10:53:04.541Z,30.33
2023-02-12T10:55:33.429Z,27.40
2023-02-12T10:58:02.212Z,27.00
2023-02-12T11:00:32.424Z,27.80
2023-02-12T11:03:06.063Z,32.97
2023-02-12T11:05:36.110Z,28.83
2023-02-12T11:08:06.267Z,28.13
2023-02-12T11:10:36.451Z,29.37
2023-02-12T11:13:04.534Z,26.17
2023-02-12T11:15:36.597Z,27.83
2023-02-12T11:18:05.819Z,24.80
2023-02-12T11:20:35.374Z,25.33
2023-02-12T11:23:06.415Z,28.13
2023-02-12T11:25:36.071Z,24.37
2023-02-12T11:28:07.531Z,24.17
2023-02-12T11:30:36.717Z,31.40
2023-02-12T11:33:18.441Z,27.10
2023-02-12T11:35:53.245Z,27.13
2023-02-12T11:38:28.720Z,28.23
2023-02-12T11:41:03.270Z,27.50
2023-02-12T11:43:32.119Z,23.10
2023-02-12T11:46:00.689Z,26.40
2023-02-12T11:48:30.830Z,25.90
2023-02-12T11:51:00.454Z,23.67
2023-02-12T11:53:32.410Z,23.17
2023-02-12T11:56:02.371Z,24.20
2023-02-12T11:58:30.814Z,24.07
2023-02-12T12:01:05.347Z,23.80
2023-02-12T12:03:37.651Z,25.90
2023-02-12T12:06:08.601Z,23.20
2023-02-12T12:08:41.652Z,23.83
2023-02-12T12:11:13.195Z,23.60
2023-02-12T12:13:44.479Z,24.43
2023-02-12T12:16:32.099Z,24.73
2023-02-12T12:19:24.949Z,25.47
2023-02-12T12:21:58.222Z,24.37
2023-02-12T12:24:30.339Z,25.23
2023-02-12T12:27:00.960Z,23.20
2023-02-12T12:29:34.521Z,25.17
2023-02-12T12:32:02.939Z,25.53
2023-02-12T12:34:31.057Z,26.33
2023-02-12T12:37:16.999Z,26.30
2023-02-12T12:39:53.644Z,24.83
2023-02-12T12:42:48.724Z,25.47
2023-02-12T12:45:22.818Z,23.07
2023-02-12T12:47:58.704Z,22.67
2023-02-12T12:50:36.860Z,22.97
2023-02-12T12:53:13.338Z,24.20
2023-02-12T12:56:00.562Z,22.70
2023-02-12T12:58:35.634Z,23.33
2023-02-12T13:01:12.025Z,19.00
2023-02-12T13:04:09.979Z,20.17
2023-02-12T13:06:42.740Z,22.13
2023-02-12T13:09:21.331Z,19.13
2023-02-12T13:11:57.490Z,21.90
2023-02-12T13:14:31.312Z,23.40
2023-02-12T13:17:01.998Z,17.57
2023-02-12T13:19:37.930Z,17.93
2023-02-12T13:22:07.958Z,19.30
2023-02-12T13:24:38.377Z,20.60
2023-02-12T13:27:08.758Z,18.33
2023-02-12T13:29:38.133Z,20.53
2023-02-12T13:32:07.594Z,21.20
2023-02-12T13:34:36.076Z,18.00
2023-02-12T13:37:04.415Z,20.30
2023-02-12T13:39:34.638Z,20.60
2023-02-12T13:42:10.145Z,19.80
2023-02-12T13:44:41.394Z,18.73
2023-02-12T13:47:13.834Z,21.20
2023-02-12T13:49:46.198Z,19.60
2023-02-12T13:52:15.473Z,22.87
2023-02-12T13:54:50.251Z,16.33
2023-02-12T13:57:31.802Z,18.20
2023-02-12T14:00:00.676Z,19.10
2023-02-12T14:02:44.593Z,19.33
2023-02-12T14:05:33.575Z,20.27
2023-02-12T14:08:03.627Z,20.20
2023-02-12T14:10:37.812Z,15.47
2023-02-12T14:13:21.121Z,18.70
2023-02-12T14:15:51.326Z,17.17
2023-02-12T14:18:27.933Z,18.97
2023-02-12T14:21:37.715Z,16.60
2023-02-12T14:24:47.716Z,17.40
2023-02-12T14:27:27.704Z,17.60
2023-02-12T14:30:25.653Z,17.40
2023-02-12T14:33:22.107Z,18.80
2023-02-12T14:35:52.597Z,17.57
2023-02-12T14:39:00.449Z,14.63
2023-02-12T14:41:37.955Z,15.87
2023-02-12T14:44:45.887Z,15.77
2023-02-12T14:47:45.223Z,18.07
2023-02-12T14:50:23.091Z,16.93
2023-02-12T14:52:54.804Z,17.40
2023-02-12T14:55:25.940Z,17.00
2023-02-12T14:57:58.527Z,16.10
2023-02-12T15:00:28.927Z,15.67
2023-02-12T15:02:59.910Z,18.47
2023-02-12T15:05:30.764Z,15.13
2023-02-12T15:08:00.558Z,18.67
2023-02-12T15:10:31.784Z,16.10
2023-02-12T15:13:06.955Z,18.13
2023-02-12T15:15:35.553Z,17.27
2023-02-12T15:18:06.215Z,16.97
2023-02-12T15:20:38.992Z,18.90
2023-02-12T15:23:31.918Z,17.00
2023-02-12T15:26:00.123Z,15.97
2023-02-12T15:28:33.570Z,17.00
2023-02-12T15:31:02.388Z,18.03
2023-02-12T15:33:36.527Z,15.83
2023-02-12T15:36:06.642Z,16.80
2023-02-12T15:38:35.551Z,19.77
2023-02-12T15:41:04.487Z,15.40
2023-02-12T15:43:35.144Z,15.63
2023-02-12T15:46:03.746Z,16.57
2023-02-12T15:48:32.932Z,18.37
2023-02-12T15:51:06.442Z,17.20
2023-02-12T15:53:34.522Z,15.67
2023-02-12T15:56:02.765Z,15.10
2023-02-12T15:58:32.019Z,16.20
2023-02-12T16:01:02.139Z,15.60
2023-02-12T16:03:32.616Z,15.07
2023-02-12T16:06:03.612Z,15.80
2023-02-12T16:08:33.272Z,19.70
2023-02-12T16:11:13.873Z,16.17
2023-02-12T16:13:45.749Z,16.70
2023-02-12T16:16:23.123Z,16.13
2023-02-12T16:19:06.223Z,15.17
2023-02-12T16:21:35.752Z,18.50
2023-02-12T16:24:05.683Z,18.17
2023-02-12T16:26:33.805Z,14.97
2023-02-12T16:29:01.968Z,15.63
2023-02-12T16:31:30.222Z,15.60
2023-02-12T16:33:59.428Z,28.33
2023-02-12T16:36:32.249Z,31.63
2023-02-12T16:39:01.803Z,24.60
2023-02-12T16:41:31.919Z,24.93
2023-02-12T16:44:29.475Z,25.00
2023-02-12T16:46:59.965Z,22.67
2023-02-12T16:49:28.188Z,19.77
2023-02-12T16:52:15.097Z,22.63
2023-02-12T16:54:43.168Z,21.50
2023-02-12T16:57:13.286Z,25.70
2023-02-12T16:59:44.493Z,19.37
2023-02-12T17:02:13.533Z,21.10
2023-02-12T17:04:41.585Z,20.07
2023-02-12T17:07:20.019Z,21.27
2023-02-12T17:09:48.240Z,20.50
2023-02-12T17:12:18.024Z,25.50
2023-02-12T17:14:46.170Z,22.50
2023-02-12T17:17:14.244Z,22.93
2023-02-12T17:19:42.341Z,19.70
2023-02-12T17:22:18.815Z,24.70
2023-02-12T17:24:51.505Z,25.20
2023-02-12T17:27:25.937Z,21.03
2023-02-12T17:29:54.021Z,25.30
2023-02-12T17:32:24.510Z,24.40
2023-02-12T17:34:52.916Z,22.90
2023-02-12T17:37:22.340Z,21.10
2023-02-12T17:39:50.416Z,20.30
2023-02-12T17:42:18.539Z,24.50
2023-02-12T17:44:48.025Z,21.20
2023-02-12T17:47:16.162Z,22.07
2023-02-12T17:49:44.476Z,25.77
2023-02-12T17:52:12.569Z,22.10
2023-02-12T17:54:40.788Z,23.97
2023-02-12T17:57:08.843Z,21.90
2023-02-12T17:59:38.208Z,19.87
2023-02-12T18:02:08.539Z,18.30
2023-02-12T18:04:36.648Z,20.90
2023-02-12T18:07:05.001Z,18.80
2023-02-12T18:09:33.092Z,17.57
2023-02-12T18:12:01.236Z,20.73
2023-02-12T18:14:29.351Z,17.23
2023-02-12T18:16:57.515Z,21.60
2023-02-12T18:19:27.978Z,19.10
2023-02-12T18:21:56.106Z,19.70
2023-02-12T18:24:24.194Z,15.73
2023-02-12T18:26:52.427Z,16.87
2023-02-12T18:29:20.488Z,18.30
2023-02-12T18:31:55.741Z,19.30
2023-02-12T18:34:24.228Z,18.20
2023-02-12T18:36:53.732Z,18.20
2023-02-12T18:39:21.778Z,19.30
2023-02-12T18:41:49.871Z,25.87
2023-02-12T18:44:17.928Z,17.13
2023-02-12T18:46:46.015Z,22.33
2023-02-12T18:49:24.416Z,21.20
2023-02-12T18:51:53.964Z,19.43
2023-02-12T18:54:22.039Z,19.17
2023-02-12T18:56:52.004Z,18.10
2023-02-12T18:59:20.152Z,16.90
2023-02-12T19:01:49.396Z,20.33
2023-02-12T19:04:17.933Z,17.93
2023-02-12T19:06:47.227Z,20.90
2023-02-12T19:09:17.222Z,21.00
2023-02-12T19:11:46.767Z,17.37
2023-02-12T19:14:15.013Z,19.10
2023-02-12T19:16:44.939Z,20.37
2023-02-12T19:19:13.597Z,19.93
2023-02-12T19:21:41.827Z,22.20
2023-02-12T19:24:11.035Z,20.83
2023-02-12T19:26:40.522Z,22.00
2023-02-12T19:29:08.626Z,18.80
2023-02-12T19:31:37.452Z,20.77
2023-02-12T19:34:08.322Z,21.53
2023-02-12T19:36:37.260Z,20.83
2023-02-12T19:39:06.047Z,21.03
2023-02-12T19:41:40.689Z,24.80
2023-02-12T19:44:11.922Z,21.03
2023-02-12T19:46:40.609Z,25.17
2023-02-12T19:49:09.136Z,21.87
2023-02-12T19:51:39.533Z,21.97
2023-02-12T19:54:08.078Z,22.13
2023-02-12T19:56:36.292Z,21.37
2023-02-12T19:59:04.521Z,20.97
2023-02-12T20:01:38.014Z,22.67
2023-02-12T20:04:06.475Z,22.67
2023-02-12T20:06:37.389Z,19.20
2023-02-12T20:09:06.097Z,21.63
2023-02-12T20:11:37.639Z,22.10
2023-02-12T20:14:06.152Z,22.53
2023-02-12T20:16:38.147Z,21.80
2023-02-12T20:19:08.809Z,20.97
2023-02-12T20:21:36.950Z,24.10
2023-02-12T20:24:05.642Z,23.43
2023-02-12T20:26:33.831Z,21.20
2023-02-12T20:29:04.585Z,22.20
2023-02-12T20:31:34.164Z,24.07
2023-02-12T20:34:03.179Z,20.33
2023-02-12T20:36:34.136Z,22.13
2023-02-12T20:39:02.283Z,21.27
2023-02-12T20:41:30.354Z,18.33
2023-02-12T20:44:00.713Z,22.23
2023-02-12T20:46:28.759Z,20.27
2023-02-12T20:48:57.617Z,20.10
2023-02-12T20:51:26.734Z,19.93
2023-02-12T20:53:56.435Z,19.70
2023-02-12T20:56:25.696Z,20.20
2023-02-12T20:58:54.151Z,21.27
2023-02-12T21:01:23.266Z,19.50
2023-02-12T21:03:52.076Z,20.70
2023-02-12T21:06:20.438Z,19.83
2023-02-12T21:08:48.658Z,22.60
2023-02-12T21:11:19.737Z,20.33
2023-02-12T21:13:58.604Z,20.93
2023-02-12T21:16:31.562Z,19.73
2023-02-12T21:18:59.603Z,22.57
2023-02-12T21:21:31.530Z,21.70
2023-02-12T21:24:00.364Z,19.00
2023-02-12T21:26:31.120Z,19.93
2023-02-12T21:29:00.662Z,25.23
2023-02-12T21:31:31.565Z,21.33
2023-02-12T21:34:00.461Z,19.70
2023-02-12T21:36:29.613Z,19.17
2023-02-12T21:38:57.801Z,20.40
2023-02-12T21:41:26.633Z,22.93
2023-02-12T21:43:58.076Z,19.03
2023-02-12T21:46:26.224Z,19.37
2023-02-12T21:48:54.354Z,21.30
2023-02-12T21:51:23.672Z,21.40
2023-02-12T21:53:54.724Z,20.30
2023-02-12T21:56:24.596Z,18.97
2023-02-12T21:58:52.738Z,17.73
2023-02-12T22:01:23.703Z,17.60
2023-02-12T22:03:51.817Z,17.23
2023-02-12T22:06:22.098Z,20.50
2023-02-12T22:08:50.715Z,20.17
2023-02-12T22:11:19.012Z,20.27
2023-02-12T22:13:48.598Z,19.27
2023-02-12T22:16:18.521Z,19.80
2023-02-12T22:18:48.191Z,17.17
2023-02-12T22:21:17.260Z,17.83
2023-02-12T22:23:45.624Z,17.93
2023-02-12T22:26:14.406Z,18.40
2023-02-12T22:28:43.127Z,18.17
2023-02-12T22:31:11.914Z,15.80
2023-02-12T22:33:39.940Z,16.77
2023-02-12T22:36:10.476Z,19.77
2023-02-12T22:38:38.896Z,16.37
2023-02-12T22:41:07.332Z,19.70
2023-02-12T22:43:36.374Z,15.73
2023-02-12T22:46:04.542Z,17.60
2023-02-12T22:48:32.620Z,18.60
2023-02-12T22:51:00.705Z,16.80
2023-02-12T22:53:30.122Z,17.17
2023-02-12T22:55:58.181Z,17.70
2023-02-12T22:58:26.279Z,16.80
2023-02-12T23:00:54.760Z,15.17
2023-02-12T23:03:22.863Z,16.90
2023-02-12T23:05:50.918Z,18.03
2023-02-12T23:08:18.995Z,16.73
2023-02-12T23:10:48.418Z,18.20
2023-02-12T23:13:28.991Z,16.43
2023-02-12T23:15:57.910Z,15.53
2023-02-12T23:18:26.022Z,16.90
2023-02-12T23:20:54.047Z,16.47
2023-02-12T23:23:22.262Z,15.03
2023-02-12T23:25:53.920Z,14.90
2023-02-12T23:28:22.301Z,19.87
2023-02-12T23:30:50.590Z,15.50
2023-02-12T23:33:19.154Z,16.73
2023-02-12T23:35:47.416Z,15.87
2023-02-12T23:38:15.484Z,17.77
2023-02-12T23:40:43.562Z,18.50
2023-02-12T23:43:12.972Z,13.80
2023-02-12T23:45:41.029Z,16.50
2023-02-12T23:48:09.096Z,16.53
2023-02-12T23:50:37.140Z,14.03
2023-02-12T23:53:06.866Z,14.57
2023-02-12T23:55:37.216Z,16.07
2023-02-12T23:58:05.536Z,14.43
